TimeMDT,TemperatureF,Dew PointF,Humidity,Sea Level PressureIn,VisibilityMPH,Wind Direction,Wind SpeedMPH,Gust SpeedMPH,PrecipitationIn,Events,Conditions,WindDirDegrees,DateUTC
12:56 AM,53.1,41.0,64,29.83,10.0,SSE,6.9,-,N/A,,Clear,150,2013-07-21 06:56:00
1:56 AM,51.1,39.9,66,29.83,10.0,SSE,9.2,-,N/A,,Clear,150,2013-07-21 07:56:00
2:56 AM,54.0,39.0,57,29.82,10.0,SSE,4.6,-,N/A,,Clear,150,2013-07-21 08:56:00
3:56 AM,46.9,39.0,74,29.84,10.0,SE,8.1,-,N/A,,Clear,140,2013-07-21 09:56:00
4:56 AM,53.1,37.9,57,29.84,10.0,SSE,9.2,-,N/A,,Clear,160,2013-07-21 10:56:00
5:56 AM,46.0,37.9,73,29.87,10.0,SE,5.8,-,N/A,,Clear,140,2013-07-21 11:56:00
6:56 AM,50.0,39.9,68,29.88,10.0,North,-9999.0,-,N/A,,Clear,0,2013-07-21 12:56:00
7:56 AM,60.1,39.9,47,29.88,10.0,ESE,6.9,-,N/A,,Clear,120,2013-07-21 13:56:00
8:56 AM,66.9,39.9,37,29.88,10.0,Calm,Calm,-,N/A,,Clear,0,2013-07-21 14:56:00
9:56 AM,73.0,37.9,28,29.89,10.0,Variable,3.5,-,N/A,,Clear,0,2013-07-21 15:56:00
10:56 AM,78.1,28.9,17,29.87,10.0,West,5.8,-,N/A,,Clear,270,2013-07-21 16:56:00
11:56 AM,80.1,30.0,16,29.88,10.0,Variable,3.5,-,N/A,,Clear,0,2013-07-21 17:56:00
12:56 PM,79.0,34.0,20,29.87,10.0,NNW,10.4,-,N/A,,Clear,340,2013-07-21 18:56:00
1:56 PM,84.0,30.0,14,29.85,10.0,North,4.6,-,N/A,,Clear,10,2013-07-21 19:56:00
2:56 PM,86.0,25.0,11,29.83,10.0,Variable,3.5,-,N/A,,Clear,0,2013-07-21 20:56:00
3:56 PM,87.1,28.9,12,29.82,10.0,NNE,4.6,-,N/A,,Clear,30,2013-07-21 21:56:00
4:56 PM,89.1,27.0,11,29.79,10.0,North,5.8,-,N/A,,Clear,360,2013-07-21 22:56:00
5:56 PM,89.1,26.1,10,29.79,10.0,NE,5.8,-,N/A,,Clear,40,2013-07-21 23:56:00
6:56 PM,87.1,30.9,13,29.78,10.0,ENE,5.8,-,N/A,,Clear,60,2013-07-22 00:56:00
7:56 PM,82.0,45.0,27,29.77,10.0,East,4.6,-,N/A,,Clear,80,2013-07-22 01:56:00
8:56 PM,71.1,39.9,32,29.78,10.0,East,8.1,-,N/A,,Clear,90,2013-07-22 02:56:00
9:56 PM,71.1,39.0,31,29.78,10.0,South,12.7,-,N/A,,Clear,170,2013-07-22 03:56:00
10:56 PM,66.9,32.0,27,29.78,10.0,South,11.5,-,N/A,,Clear,180,2013-07-22 04:56:00
11:56 PM,54.0,39.9,59,29.83,10.0,East,3.5,-,N/A,,Clear,100,2013-07-22 05:56:00